Time;durP1;ratioP1;P1;durP2;ratioP2;P2;SDS_P1;SDS_P2;PMS_P1;PMS_P2;Temp;Humidity;BMP_temperature;BMP_pressure;BME280_temperature;BME280_humidity;BME280_pressure;Samples;Min_cycle;Max_cycle;Signal;HPM_P1;HPM_P2
2022/10/17 00:00:48;;;;;;;9.30;3.30;;;11.20;99.90;;;;;;5020856;28;20373;-70
2022/10/17 00:03:15;;;;;;;9.23;3.30;;;11.20;99.90;;;;;;5025472;28;20386;-70
2022/10/17 00:05:45;;;;;;;8.40;3.30;;;11.20;99.90;;;;;;5040815;28;20290;-70
2022/10/17 00:08:12;;;;;;;6.83;3.13;;;11.20;99.90;;;;;;5008168;28;20841;-70
2022/10/17 00:10:38;;;;;;;13.97;3.57;;;11.20;99.90;;;;;;5024858;28;20288;-70
2022/10/17 00:13:05;;;;;;;6.53;3.63;;;11.30;99.90;;;;;;5015696;28;20276;-70
2022/10/17 00:15:31;;;;;;;7.20;2.80;;;11.30;99.90;;;;;;5036506;28;20288;-70
2022/10/17 00:17:57;;;;;;;8.30;3.27;;;11.30;99.90;;;;;;5024020;28;20284;-70
2022/10/17 00:20:23;;;;;;;13.43;3.50;;;11.40;99.90;;;;;;5024723;28;20045;-70
2022/10/17 00:22:49;;;;;;;10.40;3.10;;;11.40;99.90;;;;;;5024487;28;20798;-70
2022/10/17 00:25:15;;;;;;;13.93;3.63;;;11.50;99.90;;;;;;5037404;28;20511;-70
2022/10/17 00:27:41;;;;;;;14.10;3.73;;;11.50;99.90;;;;;;5019508;28;20303;-71
2022/10/17 00:30:10;;;;;;;9.37;3.17;;;11.60;99.90;;;;;;5024651;28;20075;-70
2022/10/17 00:32:36;;;;;;;11.63;3.00;;;11.60;99.90;;;;;;5021579;28;20292;-70
2022/10/17 00:35:02;;;;;;;11.20;3.40;;;11.60;99.90;;;;;;5045429;28;20279;-70
2022/10/17 00:37:30;;;;;;;13.87;3.60;;;11.60;99.90;;;;;;5031476;28;20052;-70
2022/10/17 00:39:55;;;;;;;6.97;3.13;;;11.70;99.90;;;;;;5024328;28;20400;-70
2022/10/17 00:42:23;;;;;;;8.87;3.00;;;11.70;99.90;;;;;;5024389;28;20319;-70
2022/10/17 00:44:49;;;;;;;9.47;3.47;;;11.70;99.90;;;;;;5007950;28;20558;-71
2022/10/17 00:47:21;;;;;;;10.40;2.93;;;11.70;99.90;;;;;;5007426;28;20354;-71
2022/10/17 00:49:47;;;;;;;12.43;3.10;;;11.80;99.90;;;;;;5028881;28;20060;-70
2022/10/17 00:52:24;;;;;;;11.87;3.47;;;11.80;99.90;;;;;;5024308;28;20307;-70
2022/10/17 00:55:11;;;;;;;9.43;2.83;;;11.80;99.90;;;;;;5023404;28;20296;-71
2022/10/17 00:57:38;;;;;;;11.63;3.63;;;11.80;99.90;;;;;;5039922;28;20284;-70
2022/10/17 01:00:08;;;;;;;9.17;3.07;;;11.70;99.90;;;;;;5024364;28;20268;-70
2022/10/17 01:02:34;;;;;;;11.30;3.70;;;11.70;99.90;;;;;;5005600;28;20756;-70
2022/10/17 01:05:00;;;;;;;7.77;3.37;;;11.70;99.90;;;;;;5023704;28;20282;-70
2022/10/17 01:07:27;;;;;;;10.23;3.67;;;11.80;99.90;;;;;;5036069;28;20073;-70
2022/10/17 01:09:54;;;;;;;9.33;3.60;;;11.80;99.90;;;;;;5023736;28;20284;-70
2022/10/17 01:12:24;;;;;;;8.67;4.07;;;11.80;99.90;;;;;;5019208;28;20289;-70
2022/10/17 01:14:56;;;;;;;11.23;3.90;;;11.90;99.90;;;;;;5017943;28;20284;-70
2022/10/17 01:17:33;;;;;;;8.00;3.83;;;11.90;99.90;;;;;;5035244;28;20932;-70
2022/10/17 01:20:22;;;;;;;9.10;3.83;;;11.90;99.90;;;;;;5023815;28;20564;-70
2022/10/17 01:23:11;;;;;;;12.03;3.97;;;11.90;99.90;;;;;;5023764;28;20288;-70
2022/10/17 01:25:54;;;;;;;7.73;3.97;;;11.90;99.90;;;;;;4976495;28;20280;-70
2022/10/17 01:28:35;;;;;;;11.30;5.07;;;11.90;99.90;;;;;;5011808;28;20817;-70
2022/10/17 01:31:07;;;;;;;11.47;3.90;;;11.90;99.90;;;;;;5032805;28;20292;-70
2022/10/17 01:34:12;;;;;;;8.13;3.87;;;11.90;99.90;;;;;;5030177;28;20367;-70
2022/10/17 01:36:50;;;;;;;7.87;4.20;;;11.90;99.90;;;;;;5027404;28;20295;-70
2022/10/17 01:39:15;;;;;;;9.23;4.00;;;11.90;99.90;;;;;;5030326;28;20307;-70
2022/10/17 01:42:05;;;;;;;10.80;4.30;;;11.80;99.90;;;;;;5037408;28;20836;-70
2022/10/17 01:44:36;;;;;;;10.63;4.27;;;11.80;99.90;;;;;;5023675;28;20349;-70
2022/10/17 01:47:08;;;;;;;9.43;4.20;;;11.80;99.90;;;;;;5029636;28;20768;-70
2022/10/17 01:49:36;;;;;;;8.77;4.90;;;11.80;99.90;;;;;;5030358;28;20773;-70
2022/10/17 01:52:11;;;;;;;8.97;4.50;;;11.70;99.90;;;;;;5030072;28;20319;-70
2022/10/17 01:54:58;;;;;;;10.43;4.75;;;11.70;99.90;;;;;;5046822;28;20284;-70
2022/10/17 01:57:53;;;;;;;7.00;4.57;;;11.70;99.90;;;;;;5016888;28;20049;-70
2022/10/17 02:00:23;;;;;;;11.90;5.55;;;11.70;99.90;;;;;;5033534;28;20387;-70
2022/10/17 02:02:53;;;;;;;8.73;4.57;;;11.70;99.90;;;;;;5029596;28;20080;-70
2022/10/17 02:05:23;;;;;;;7.77;5.00;;;11.70;99.90;;;;;;5029689;28;20779;-70
2022/10/17 02:07:49;;;;;;;7.83;4.67;;;11.70;99.90;;;;;;5012828;28;20303;-70
2022/10/17 02:10:24;;;;;;;11.47;5.17;;;11.60;99.90;;;;;;5029784;28;20331;-70
2022/10/17 02:13:02;;;;;;;7.27;5.30;;;11.60;99.90;;;;;;5022560;28;20594;-70
2022/10/17 02:15:28;;;;;;;9.40;5.40;;;11.60;99.90;;;;;;5028447;28;20280;-70
2022/10/17 02:18:23;;;;;;;11.57;5.53;;;11.60;99.90;;;;;;5041405;28;20275;-70
2022/10/17 02:21:13;;;;;;;10.20;5.40;;;11.60;99.90;;;;;;5016411;28;20131;-70
2022/10/17 02:23:59;;;;;;;11.10;5.43;;;11.60;99.90;;;;;;5026626;28;20296;-70
2022/10/17 02:26:31;;;;;;;9.40;5.23;;;11.60;99.90;;;;;;5038504;28;20603;-70
2022/10/17 02:29:18;;;;;;;10.97;5.47;;;11.60;99.90;;;;;;5038359;28;20291;-71
2022/10/17 02:32:07;;;;;;;8.43;5.17;;;11.60;99.90;;;;;;5029370;28;20333;-70
2022/10/17 02:34:49;;;;;;;10.20;5.80;;;11.60;99.90;;;;;;5042240;28;20756;-70
2022/10/17 02:37:19;;;;;;;9.43;5.83;;;11.50;99.90;;;;;;5046377;28;20304;-70
2022/10/17 02:39:47;;;;;;;9.70;6.10;;;11.50;99.90;;;;;;5012508;28;20788;-70
2022/10/17 02:42:14;;;;;;;9.77;6.83;;;11.60;99.90;;;;;;5026618;28;20287;-70
2022/10/17 02:44:42;;;;;;;11.90;6.13;;;11.60;99.90;;;;;;5025285;28;20271;-67
2022/10/17 02:47:22;;;;;;;14.27;6.50;;;11.60;99.90;;;;;;5044936;28;20353;-69
2022/10/17 02:49:51;;;;;;;11.73;6.43;;;11.60;99.90;;;;;;5030515;28;20284;-69
2022/10/17 02:52:25;;;;;;;9.00;6.03;;;11.60;99.90;;;;;;5026532;28;20641;-69
2022/10/17 02:55:18;;;;;;;10.60;7.05;;;11.70;99.90;;;;;;5025728;28;20296;-69
2022/10/17 02:57:49;;;;;;;9.93;7.00;;;11.70;99.90;;;;;;5023173;28;20140;-69
2022/10/17 03:00:17;;;;;;;9.37;6.93;;;11.70;99.90;;;;;;5014871;28;20743;-69
2022/10/17 03:02:48;;;;;;;13.23;8.10;;;11.70;99.90;;;;;;5032739;28;20334;-69
2022/10/17 03:05:24;;;;;;;11.43;7.70;;;11.80;99.90;;;;;;5036544;28;20288;-69
2022/10/17 03:07:50;;;;;;;10.27;7.67;;;11.80;99.90;;;;;;5015398;28;20354;-69
2022/10/17 03:10:16;;;;;;;14.33;8.13;;;11.80;99.90;;;;;;5025767;28;20346;-69
2022/10/17 03:12:42;;;;;;;13.20;8.13;;;11.80;99.90;;;;;;5017830;28;20324;-69
2022/10/17 03:15:09;;;;;;;15.30;8.80;;;11.90;99.90;;;;;;5022209;28;20398;-69
2022/10/17 03:17:36;;;;;;;12.97;8.13;;;11.90;99.90;;;;;;5025734;28;20072;-69
2022/10/17 03:20:02;;;;;;;11.27;8.43;;;11.90;99.90;;;;;;5011816;28;20283;-69
2022/10/17 03:22:28;;;;;;;11.53;7.77;;;11.90;99.90;;;;;;5019700;28;20656;-69
2022/10/17 03:24:53;;;;;;;12.97;8.40;;;11.90;99.90;;;;;;5025242;28;20294;-69
2022/10/17 03:27:19;;;;;;;13.07;8.90;;;11.90;99.90;;;;;;5009604;28;20042;-69
2022/10/17 03:29:45;;;;;;;15.37;9.70;;;11.90;99.90;;;;;;5025228;28;20084;-69
2022/10/17 03:32:10;;;;;;;15.30;8.80;;;11.90;99.90;;;;;;5005714;28;20528;-69
2022/10/17 03:34:36;;;;;;;13.03;8.70;;;11.90;99.90;;;;;;5021223;28;20307;-69
2022/10/17 03:37:02;;;;;;;14.33;9.93;;;11.90;99.90;;;;;;5024952;28;20049;-69
2022/10/17 03:39:27;;;;;;;14.57;10.00;;;11.90;99.90;;;;;;5026165;28;20057;-69
2022/10/17 03:41:53;;;;;;;17.90;10.17;;;11.90;99.90;;;;;;5025776;28;20037;-69
2022/10/17 03:44:19;;;;;;;15.00;10.97;;;11.90;99.90;;;;;;5025878;28;20054;-69
2022/10/17 03:46:44;;;;;;;15.90;11.57;;;11.90;99.90;;;;;;5024707;28;20444;-69
2022/10/17 03:49:10;;;;;;;15.30;11.10;;;12.00;99.90;;;;;;5007928;28;20038;-69
2022/10/17 03:51:36;;;;;;;14.87;11.10;;;12.00;99.90;;;;;;5025192;28;20067;-69
2022/10/17 03:54:03;;;;;;;18.07;12.17;;;12.00;99.90;;;;;;5024402;28;20061;-69
2022/10/17 03:56:28;;;;;;;20.53;12.07;;;12.00;99.90;;;;;;5025071;28;20787;-69
2022/10/17 03:58:55;;;;;;;17.43;12.97;;;12.10;99.90;;;;;;5025135;28;20276;-69
2022/10/17 04:01:21;;;;;;;17.77;12.33;;;12.10;99.90;;;;;;5033311;28;20067;-69
2022/10/17 04:03:52;;;;;;;15.63;12.17;;;12.20;99.90;;;;;;5037538;28;20288;-69
2022/10/17 04:06:18;;;;;;;17.77;13.13;;;12.20;99.90;;;;;;4991892;28;20284;-69
2022/10/17 04:08:44;;;;;;;19.37;13.03;;;12.30;99.90;;;;;;5036949;28;20740;-69
2022/10/17 04:11:17;;;;;;;18.37;13.07;;;12.30;99.90;;;;;;5025277;28;20779;-69
2022/10/17 04:13:44;;;;;;;17.83;12.23;;;12.30;99.90;;;;;;5013708;28;20289;-69
2022/10/17 04:16:15;;;;;;;19.27;13.47;;;12.40;99.90;;;;;;5024487;28;20363;-69
2022/10/17 04:18:41;;;;;;;19.53;13.37;;;12.40;99.90;;;;;;5023939;28;20284;-69
2022/10/17 04:21:07;;;;;;;17.27;12.80;;;12.50;99.90;;;;;;5024668;28;20319;-69
2022/10/17 04:23:33;;;;;;;17.97;13.20;;;12.50;99.90;;;;;;5013466;28;20291;-69
2022/10/17 04:26:00;;;;;;;19.37;12.93;;;12.50;99.90;;;;;;5031782;28;20551;-69
2022/10/17 04:28:26;;;;;;;23.83;13.23;;;12.60;99.90;;;;;;5037569;28;20081;-69
2022/10/17 04:31:00;;;;;;;16.50;12.63;;;12.60;99.90;;;;;;5024199;28;20296;-70
2022/10/17 04:33:26;;;;;;;20.00;14.30;;;12.70;99.90;;;;;;5024052;28;20318;-70
2022/10/17 04:36:11;;;;;;;18.33;13.03;;;12.80;99.90;;;;;;5007355;28;20676;-69
2022/10/17 04:38:37;;;;;;;18.00;12.27;;;12.90;99.90;;;;;;5024203;28;20033;-69
2022/10/17 04:41:06;;;;;;;17.83;12.57;;;13.00;99.90;;;;;;5024241;28;20107;-69
2022/10/17 04:43:36;;;;;;;17.13;12.30;;;13.00;99.90;;;;;;5024729;28;20051;-69
2022/10/17 04:46:09;;;;;;;17.37;12.73;;;13.00;99.90;;;;;;5023504;28;20296;-70
2022/10/17 04:48:34;;;;;;;16.13;12.27;;;13.10;99.90;;;;;;5024011;28;20335;-70
2022/10/17 04:51:12;;;;;;;19.30;13.20;;;13.10;99.90;;;;;;5008783;28;20792;-70
2022/10/17 04:53:39;;;;;;;17.97;13.00;;;13.10;99.90;;;;;;5007443;28;20053;-70
2022/10/17 04:56:10;;;;;;;18.37;13.27;;;13.10;99.90;;;;;;5024615;28;20316;-70
2022/10/17 04:58:36;;;;;;;17.90;14.27;;;13.20;99.90;;;;;;5024782;28;20296;-70
2022/10/17 05:01:06;;;;;;;21.37;14.07;;;13.20;99.90;;;;;;5024613;28;20371;-70
2022/10/17 05:03:33;;;;;;;16.60;12.93;;;13.30;99.90;;;;;;5023442;28;20634;-70
2022/10/17 05:06:12;;;;;;;19.57;13.13;;;13.40;99.90;;;;;;5008423;28;20280;-70
2022/10/17 05:08:38;;;;;;;18.73;12.53;;;13.40;99.90;;;;;;5023383;28;20299;-70
2022/10/17 05:11:04;;;;;;;17.60;13.50;;;13.50;99.90;;;;;;4998824;28;20384;-70
2022/10/17 05:13:31;;;;;;;18.13;12.47;;;13.60;99.90;;;;;;5012943;28;20284;-70
2022/10/17 05:15:59;;;;;;;18.97;12.63;;;13.60;99.90;;;;;;5024115;28;20859;-70
2022/10/17 05:18:25;;;;;;;18.97;13.20;;;13.60;99.90;;;;;;5007134;28;20292;-70
2022/10/17 05:20:51;;;;;;;16.77;13.30;;;13.70;99.90;;;;;;4990820;28;20284;-70
2022/10/17 05:23:17;;;;;;;16.77;12.60;;;13.70;99.90;;;;;;5023902;28;20291;-70
2022/10/17 05:25:42;;;;;;;17.73;12.27;;;13.70;99.90;;;;;;5023376;28;20057;-70
2022/10/17 05:28:08;;;;;;;16.30;11.80;;;13.60;99.90;;;;;;5034596;28;20516;-70
2022/10/17 05:30:35;;;;;;;16.53;12.50;;;13.60;99.90;;;;;;5023569;28;20052;-70
2022/10/17 05:33:01;;;;;;;17.03;12.57;;;13.60;99.90;;;;;;5023253;28;20041;-70
2022/10/17 05:35:27;;;;;;;18.00;11.30;;;13.60;99.90;;;;;;5007575;28;20369;-70
2022/10/17 05:37:52;;;;;;;16.50;11.90;;;13.60;99.90;;;;;;5022659;28;20375;-70
2022/10/17 05:40:18;;;;;;;15.93;11.77;;;13.60;99.90;;;;;;5023709;28;20049;-70
2022/10/17 05:42:48;;;;;;;16.57;11.93;;;13.70;99.90;;;;;;5023348;28;20045;-70
2022/10/17 05:45:14;;;;;;;16.10;12.33;;;13.70;99.90;;;;;;5023373;28;20381;-70
2022/10/17 05:47:40;;;;;;;17.90;13.10;;;13.70;99.90;;;;;;5004809;28;20644;-70
2022/10/17 05:50:07;;;;;;;17.97;11.73;;;13.80;99.90;;;;;;5010118;28;20307;-70
2022/10/17 05:52:33;;;;;;;15.90;12.17;;;13.80;99.90;;;;;;5006549;28;20420;-70
2022/10/17 05:54:59;;;;;;;17.17;12.07;;;13.80;99.90;;;;;;4990399;28;20292;-70
2022/10/17 05:57:25;;;;;;;17.77;11.27;;;13.80;99.90;;;;;;5022115;28;20079;-71
2022/10/17 05:59:51;;;;;;;17.53;12.40;;;13.90;99.90;;;;;;5023293;28;20492;-70
2022/10/17 06:02:16;;;;;;;14.80;11.57;;;13.90;99.90;;;;;;5025547;28;20292;-70
2022/10/17 06:04:44;;;;;;;16.47;12.03;;;13.90;99.90;;;;;;5032469;28;20741;-70
2022/10/17 06:07:11;;;;;;;15.87;11.97;;;14.00;99.90;;;;;;5016455;28;20041;-70
2022/10/17 06:09:37;;;;;;;16.13;11.30;;;14.00;99.90;;;;;;5023441;28;20347;-70
2022/10/17 06:12:03;;;;;;;14.77;11.90;;;14.00;99.90;;;;;;5004371;28;20300;-70
2022/10/17 06:14:29;;;;;;;15.73;11.40;;;14.00;99.90;;;;;;5014051;28;20044;-70
2022/10/17 06:16:54;;;;;;;14.40;11.37;;;14.00;99.90;;;;;;5008336;28;20049;-70
2022/10/17 06:19:20;;;;;;;14.30;10.73;;;14.00;99.90;;;;;;5010461;28;20413;-70
2022/10/17 06:21:46;;;;;;;15.50;11.87;;;14.10;99.90;;;;;;5026662;28;20266;-70
2022/10/17 06:24:12;;;;;;;17.40;11.60;;;14.10;99.90;;;;;;5010728;28;20458;-70
2022/10/17 06:26:37;;;;;;;15.40;10.47;;;14.10;99.90;;;;;;5038625;28;20041;-70
2022/10/17 06:29:03;;;;;;;15.70;10.70;;;14.10;99.90;;;;;;5034904;28;20291;-70
2022/10/17 06:31:29;;;;;;;14.97;10.70;;;14.10;99.90;;;;;;5026532;28;20041;-70
2022/10/17 06:33:55;;;;;;;12.97;10.50;;;14.10;99.90;;;;;;5036547;28;20065;-70
2022/10/17 06:36:20;;;;;;;19.80;11.30;;;14.20;99.90;;;;;;5042198;28;20037;-70
2022/10/17 06:38:46;;;;;;;13.43;10.23;;;14.20;99.90;;;;;;5036930;28;20083;-70
2022/10/17 06:41:14;;;;;;;13.57;10.50;;;14.20;99.90;;;;;;5017268;28;20077;-70
2022/10/17 06:43:42;;;;;;;16.27;10.37;;;14.20;99.90;;;;;;5037114;28;20045;-70
2022/10/17 06:46:08;;;;;;;16.03;10.60;;;14.30;99.90;;;;;;5012835;28;20311;-70
2022/10/17 06:48:34;;;;;;;14.33;10.03;;;14.30;99.90;;;;;;5036252;28;20807;-70
2022/10/17 06:51:01;;;;;;;14.40;9.73;;;14.30;99.90;;;;;;5026718;28;20375;-70
2022/10/17 06:53:28;;;;;;;22.63;10.00;;;14.40;99.90;;;;;;5027102;28;20315;-70
2022/10/17 06:55:57;;;;;;;12.33;9.47;;;14.40;99.90;;;;;;5010358;28;20778;-71
2022/10/17 06:58:22;;;;;;;18.43;9.27;;;14.50;99.90;;;;;;5026682;28;20683;-70
2022/10/17 07:00:48;;;;;;;15.97;10.23;;;14.50;99.90;;;;;;5030870;28;20279;-70
2022/10/17 07:03:14;;;;;;;12.67;9.03;;;14.50;99.90;;;;;;5013920;28;20045;-70
2022/10/17 07:05:39;;;;;;;17.23;9.67;;;14.60;99.90;;;;;;5009407;28;20037;-70
2022/10/17 07:08:05;;;;;;;14.37;9.97;;;14.60;99.90;;;;;;5025775;28;20065;-70
2022/10/17 07:10:36;;;;;;;13.43;9.00;;;14.70;99.90;;;;;;5021995;28;20042;-70
2022/10/17 07:13:03;;;;;;;12.00;9.63;;;14.80;99.90;;;;;;4982270;28;20042;-71
2022/10/17 07:15:28;;;;;;;12.23;8.73;;;14.80;99.90;;;;;;5025053;28;20284;-71
2022/10/17 07:17:54;;;;;;;11.47;9.20;;;14.90;99.90;;;;;;5022691;28;20343;-71
2022/10/17 07:20:20;;;;;;;13.30;9.40;;;15.00;99.90;;;;;;5023022;28;20128;-71
2022/10/17 07:22:45;;;;;;;13.20;9.50;;;15.00;99.90;;;;;;5037349;28;20441;-71
2022/10/17 07:25:11;;;;;;;12.23;8.57;;;15.00;99.90;;;;;;5030930;28;20310;-71
2022/10/17 07:27:37;;;;;;;12.10;8.83;;;15.00;99.90;;;;;;5032615;28;20121;-70
2022/10/17 07:30:03;;;;;;;17.23;9.60;;;15.10;99.90;;;;;;5008665;28;20037;-70
2022/10/17 07:32:28;;;;;;;13.20;8.80;;;15.10;99.90;;;;;;5025735;28;20045;-71
2022/10/17 07:34:54;;;;;;;12.07;8.53;;;15.20;99.90;;;;;;5025401;28;20030;-71
2022/10/17 07:37:20;;;;;;;11.93;8.27;;;15.20;99.90;;;;;;5024225;28;20051;-72
2022/10/17 07:39:45;;;;;;;14.67;8.93;;;15.30;99.90;;;;;;5009212;28;20153;-72
2022/10/17 07:42:13;;;;;;;13.03;9.13;;;15.30;99.90;;;;;;5025737;28;20103;-71
2022/10/17 07:44:39;;;;;;;13.63;8.83;;;15.40;99.90;;;;;;5009192;28;20042;-70
2022/10/17 07:47:04;;;;;;;12.47;7.93;;;15.40;99.90;;;;;;5025685;28;20307;-70
2022/10/17 07:49:30;;;;;;;13.87;8.73;;;15.50;99.90;;;;;;5024135;28;20564;-71
2022/10/17 07:51:56;;;;;;;11.03;8.30;;;15.60;99.90;;;;;;5027036;28;20068;-71
2022/10/17 07:54:22;;;;;;;12.47;8.20;;;15.60;99.90;;;;;;5023969;28;20096;-71
2022/10/17 07:56:49;;;;;;;12.80;8.70;;;15.60;99.90;;;;;;5007423;28;20510;-71
2022/10/17 07:59:16;;;;;;;14.17;8.50;;;15.70;99.90;;;;;;5024336;28;20075;-71
2022/10/17 08:01:42;;;;;;;9.57;7.53;;;15.70;99.90;;;;;;5025052;28;20357;-71
2022/10/17 08:04:08;;;;;;;11.97;7.97;;;15.70;99.90;;;;;;5025298;28;20371;-72
2022/10/17 08:06:33;;;;;;;15.37;8.10;;;15.80;99.90;;;;;;5008362;28;20552;-71
2022/10/17 08:09:00;;;;;;;13.43;8.00;;;15.80;99.90;;;;;;5013182;28;20077;-71
2022/10/17 08:11:26;;;;;;;10.77;7.67;;;15.90;99.90;;;;;;5032906;28;20041;-71
2022/10/17 08:13:52;;;;;;;13.93;7.67;;;15.90;99.90;;;;;;5014387;28;20292;-71
2022/10/17 08:16:17;;;;;;;12.97;8.33;;;15.90;99.90;;;;;;5024504;28;20787;-71
2022/10/17 08:18:43;;;;;;;12.13;7.90;;;15.90;99.90;;;;;;5008762;28;20140;-71
2022/10/17 08:21:10;;;;;;;10.90;8.03;;;15.90;99.90;;;;;;5025139;28;20449;-71
2022/10/17 08:23:36;;;;;;;11.00;8.23;;;15.90;99.90;;;;;;5018553;28;20048;-71
2022/10/17 08:26:04;;;;;;;11.17;7.97;;;15.90;99.90;;;;;;5010359;28;20750;-72
2022/10/17 08:28:33;;;;;;;10.73;7.57;;;15.90;99.90;;;;;;5023218;28;20336;-72
2022/10/17 08:31:08;;;;;;;10.63;7.80;;;16.00;99.90;;;;;;5025182;28;20292;-71
2022/10/17 08:33:34;;;;;;;12.02;8.65;;;16.00;99.90;;;;;;5025019;28;20272;-71
2022/10/17 08:36:01;;;;;;;12.30;8.23;;;16.00;99.90;;;;;;5024838;28;20056;-71
2022/10/17 08:38:30;;;;;;;10.30;7.83;;;16.10;99.90;;;;;;5027911;28;20081;-71
2022/10/17 08:41:00;;;;;;;12.27;7.93;;;16.10;99.90;;;;;;5008679;28;20288;-71
2022/10/17 08:44:01;;;;;;;12.20;8.23;;;16.00;99.90;;;;;;5024907;28;20390;-71
2022/10/17 08:46:34;;;;;;;12.33;8.40;;;16.00;99.90;;;;;;5026492;28;20337;-71
2022/10/17 08:49:03;;;;;;;10.63;8.07;;;16.00;99.90;;;;;;5042064;28;20802;-71
2022/10/17 08:51:32;;;;;;;13.17;8.03;;;16.00;99.90;;;;;;5020623;28;20961;-71
2022/10/17 08:54:11;;;;;;;10.13;7.37;;;16.00;99.90;;;;;;5023335;28;20346;-71
2022/10/17 08:56:45;;;;;;;10.97;7.70;;;16.10;99.90;;;;;;5023601;28;20316;-72
2022/10/17 08:59:27;;;;;;;12.45;7.45;;;16.10;99.90;;;;;;5022438;28;20276;-71
2022/10/17 09:02:02;;;;;;;12.10;7.27;;;16.10;99.90;;;;;;5025666;28;20041;-72
2022/10/17 09:04:50;;;;;;;11.75;7.43;;;16.20;99.90;;;;;;5022427;28;20306;-73
2022/10/17 09:07:48;;;;;;;13.67;7.90;;;16.30;99.90;;;;;;5022935;28;20041;-71
2022/10/17 09:10:29;;;;;;;10.77;8.07;;;16.30;99.90;;;;;;5007524;28;20288;-72
2022/10/17 09:13:36;;;;;;;14.53;8.07;;;16.30;99.90;;;;;;5011508;28;20299;-72
2022/10/17 09:16:07;;;;;;;10.20;6.63;;;16.30;99.90;;;;;;5020649;28;20279;-72
2022/10/17 09:18:44;;;;;;;16.63;8.30;;;16.30;99.90;;;;;;5024636;28;20842;-72
2022/10/17 09:21:26;;;;;;;15.20;8.80;;;16.20;99.90;;;;;;5024060;28;20323;-72
2022/10/17 09:24:00;;;;;;;11.07;7.37;;;16.20;99.90;;;;;;5015921;28;20842;-71
2022/10/17 09:26:26;;;;;;;14.90;8.10;;;16.10;99.90;;;;;;5029033;28;20345;-71
2022/10/17 09:28:57;;;;;;;13.17;8.60;;;16.10;99.90;;;;;;5023791;28;20300;-72
2022/10/17 09:31:42;;;;;;;12.80;8.50;;;16.00;99.90;;;;;;5039950;28;20835;-72
2022/10/17 09:34:10;;;;;;;10.68;7.57;;;16.00;99.90;;;;;;5026357;28;20679;-72
2022/10/17 09:36:41;;;;;;;14.53;8.03;;;16.00;99.90;;;;;;5008038;28;20041;-73
2022/10/17 09:39:16;;;;;;;;;;;15.90;99.90;;;;;;5014122;28;20312;-72
2022/10/17 09:41:57;;;;;;;14.67;7.80;;;15.90;99.90;;;;;;5024379;28;20337;-72
2022/10/17 09:44:28;;;;;;;15.70;8.10;;;15.90;99.90;;;;;;5023973;28;20276;-73
2022/10/17 09:46:57;;;;;;;11.60;8.33;;;15.80;99.90;;;;;;5007660;28;20276;-73
2022/10/17 09:49:31;;;;;;;10.70;8.03;;;15.80;99.90;;;;;;5025085;28;20775;-72
2022/10/17 09:51:57;;;;;;;12.40;8.23;;;15.80;99.90;;;;;;5030089;28;20652;-73
2022/10/17 09:54:34;;;;;;;16.23;8.37;;;15.80;99.90;;;;;;5028231;28;20295;-72
2022/10/17 09:57:09;;;;;;;16.80;8.90;;;15.80;99.90;;;;;;5027786;28;20064;-73
2022/10/17 09:59:43;;;;;;;13.35;7.88;;;15.70;99.90;;;;;;5026880;28;20298;-73
2022/10/17 10:02:17;;;;;;;12.43;8.00;;;15.70;99.90;;;;;;5009695;28;20364;-73
2022/10/17 10:04:53;;;;;;;15.13;8.47;;;15.70;99.90;;;;;;5015107;28;20111;-72
2022/10/17 10:07:19;;;;;;;13.87;8.80;;;15.70;99.90;;;;;;5026662;28;20391;-72
2022/10/17 10:09:50;;;;;;;15.43;8.27;;;15.70;99.90;;;;;;5010117;28;20299;-73
2022/10/17 10:12:22;;;;;;;13.27;9.07;;;15.80;99.90;;;;;;5022001;28;20281;-72
2022/10/17 10:14:48;;;;;;;14.37;8.80;;;15.80;99.90;;;;;;5021617;28;20337;-73
2022/10/17 10:17:26;;;;;;;14.60;8.70;;;15.80;99.90;;;;;;5027164;28;20768;-72
2022/10/17 10:19:53;;;;;;;15.53;8.90;;;15.80;99.90;;;;;;5028069;28;20663;-72
2022/10/17 10:22:22;;;;;;;12.90;8.53;;;15.90;99.90;;;;;;5026906;28;20327;-73
2022/10/17 10:25:10;;;;;;;12.10;8.73;;;15.90;99.90;;;;;;5030550;28;20784;-72
2022/10/17 10:27:38;;;;;;;9.57;7.50;;;15.90;99.90;;;;;;5031210;28;20296;-73
2022/10/17 10:30:04;;;;;;;13.57;8.43;;;15.90;99.90;;;;;;5015402;28;20285;-73
2022/10/17 10:32:35;;;;;;;12.87;8.27;;;16.00;99.90;;;;;;5028773;28;20806;-73
2022/10/17 10:35:20;;;;;;;15.20;8.60;;;16.00;99.90;;;;;;5023466;28;20375;-74
2022/10/17 10:37:52;;;;;;;11.37;7.93;;;16.10;99.90;;;;;;5039199;28;20393;-73
2022/10/17 10:40:36;;;;;;;13.13;7.57;;;16.10;99.90;;;;;;5027058;28;20296;-72
2022/10/17 10:43:45;;;;;;;13.93;8.70;;;16.10;99.90;;;;;;5027427;28;20746;-73
2022/10/17 10:46:23;;;;;;;13.60;8.90;;;16.10;99.90;;;;;;5036249;28;20283;-72
2022/10/17 10:48:59;;;;;;;10.87;7.63;;;16.20;99.90;;;;;;5020844;28;20322;-73
2022/10/17 10:51:43;;;;;;;;;;;16.20;99.90;;;;;;5043797;28;20276;-72
2022/10/17 10:54:35;;;;;;;14.30;8.37;;;16.30;99.90;;;;;;5033497;28;19978;-73
2022/10/17 10:57:06;;;;;;;10.33;8.30;;;16.30;99.90;;;;;;5009377;28;20285;-73
2022/10/17 10:59:40;;;;;;;11.63;8.13;;;16.30;99.90;;;;;;5026699;28;20334;-73
2022/10/17 11:02:09;;;;;;;12.60;8.73;;;16.30;99.90;;;;;;5032520;28;20284;-72
2022/10/17 11:04:50;;;;;;;17.07;9.10;;;16.30;99.90;;;;;;5026558;28;20041;-72
2022/10/17 11:07:24;;;;;;;13.87;8.40;;;16.30;99.90;;;;;;5025509;28;20312;-73
2022/10/17 11:10:13;;;;;;;13.38;8.05;;;16.30;99.90;;;;;;5023454;28;20815;-73
2022/10/17 11:12:53;;;;;;;15.20;7.77;;;16.40;99.90;;;;;;5008367;28;20084;-72
2022/10/17 11:15:36;;;;;;;11.23;7.70;;;16.40;99.90;;;;;;5024730;28;20276;-72
2022/10/17 11:18:04;;;;;;;12.33;8.40;;;16.50;99.90;;;;;;5026556;28;20280;-73
2022/10/17 11:20:51;;;;;;;11.03;8.17;;;16.50;99.90;;;;;;5013582;28;20588;-73
2022/10/17 11:23:33;;;;;;;13.33;8.27;;;16.60;99.90;;;;;;5025999;28;20316;-72
2022/10/17 11:26:05;;;;;;;14.03;8.27;;;16.60;99.90;;;;;;5009107;28;20380;-73
2022/10/17 11:28:31;;;;;;;11.67;8.17;;;16.70;99.90;;;;;;5009458;28;20660;-72
2022/10/17 11:31:04;;;;;;;11.47;8.23;;;16.70;99.90;;;;;;5009437;28;20536;-73
2022/10/17 11:34:09;;;;;;;14.27;7.63;;;16.60;99.90;;;;;;5026187;28;20045;-72
2022/10/17 11:36:40;;;;;;;11.00;7.70;;;16.50;99.90;;;;;;5010886;28;20276;-72
2022/10/17 11:39:43;;;;;;;11.07;7.27;;;16.50;99.90;;;;;;5009943;28;20337;-73
2022/10/17 11:42:14;;;;;;;11.33;8.53;;;16.40;99.90;;;;;;4974411;28;20335;-72
2022/10/17 11:44:41;;;;;;;12.67;7.40;;;16.40;99.90;;;;;;5024741;28;20288;-71
2022/10/17 11:47:13;;;;;;;12.87;7.37;;;16.50;99.90;;;;;;5031722;28;20283;-71
2022/10/17 11:49:50;;;;;;;13.23;8.40;;;16.50;99.90;;;;;;5029564;28;20281;-72
2022/10/17 11:52:31;;;;;;;12.90;8.60;;;16.70;99.90;;;;;;5034293;28;20275;-72
2022/10/17 11:55:05;;;;;;;9.67;7.43;;;16.90;99.90;;;;;;5023417;28;20641;-72
2022/10/17 11:57:36;;;;;;;10.17;6.90;;;17.00;99.90;;;;;;5038354;28;20290;-72
2022/10/17 12:00:26;;;;;;;10.27;6.53;;;17.20;99.90;;;;;;5008951;28;20374;-72
2022/10/17 12:03:16;;;;;;;12.10;7.00;;;17.20;99.90;;;;;;5027549;28;20346;-72
2022/10/17 12:05:53;;;;;;;9.63;6.07;;;17.20;99.90;;;;;;5044480;28;20786;-72
2022/10/17 12:08:43;;;;;;;10.27;5.73;;;17.10;99.90;;;;;;5015780;28;20324;-72
2022/10/17 12:11:33;;;;;;;13.40;5.93;;;17.00;99.90;;;;;;5021216;28;20291;-71
2022/10/17 12:14:00;;;;;;;8.70;5.50;;;16.90;99.90;;;;;;5007606;28;20641;-71
2022/10/17 12:16:37;;;;;;;7.77;4.93;;;16.80;99.90;;;;;;5024215;28;20291;-71
2022/10/17 12:19:05;;;;;;;8.70;4.80;;;16.70;99.90;;;;;;5032980;28;20292;-71
2022/10/17 12:21:57;;;;;;;8.07;4.33;;;16.60;99.90;;;;;;5008530;28;20629;-72
2022/10/17 12:24:33;;;;;;;7.07;4.20;;;16.40;99.90;;;;;;5025706;28;20338;-71
2022/10/17 12:27:27;;;;;;;6.93;4.17;;;16.30;99.90;;;;;;5033952;28;20417;-71
2022/10/17 12:30:14;;;;;;;7.57;3.90;;;16.20;99.90;;;;;;5023374;28;20280;-72
2022/10/17 12:33:04;;;;;;;6.40;3.80;;;16.20;99.90;;;;;;5027198;28;20683;-72
2022/10/17 12:35:32;;;;;;;6.83;4.33;;;16.10;99.90;;;;;;5023334;28;20319;-71
2022/10/17 12:38:14;;;;;;;7.33;4.30;;;16.10;99.90;;;;;;5005980;28;20563;-72
2022/10/17 12:40:42;;;;;;;6.37;3.90;;;16.10;99.90;;;;;;5023361;28;20284;-72
2022/10/17 12:43:14;;;;;;;6.93;3.20;;;16.10;99.90;;;;;;5023677;28;20715;-71
2022/10/17 12:45:59;;;;;;;4.33;3.00;;;16.10;99.90;;;;;;5023130;28;20383;-71
2022/10/17 12:48:53;;;;;;;8.13;2.70;;;16.10;99.90;;;;;;5027348;28;20380;-71
2022/10/17 12:51:21;;;;;;;6.87;3.93;;;16.00;99.90;;;;;;5020839;28;20320;-71
2022/10/17 12:54:08;;;;;;;7.23;3.03;;;16.00;99.90;;;;;;5030199;28;20290;-71
2022/10/17 12:56:38;;;;;;;9.93;3.33;;;16.00;99.90;;;;;;5030963;28;20288;-71
2022/10/17 12:59:26;;;;;;;4.13;2.90;;;16.00;99.90;;;;;;5040534;28;20291;-71